createdAt,value
2022-09-28T00:01:14.721Z,99331.13
2022-09-28T00:03:42.715Z,99349.75
2022-09-28T00:06:16.773Z,99337.25
2022-09-28T00:08:50.215Z,99334.69
2022-09-28T00:11:20.816Z,99312.13
2022-09-28T00:13:51.433Z,99318.91
2022-09-28T00:16:22.517Z,99330.13
2022-09-28T00:18:51.451Z,99342.41
2022-09-28T00:21:23.351Z,99356.34
2022-09-28T00:24:10.830Z,99354.16
2022-09-28T00:26:40.689Z,99312.19
2022-09-28T00:29:15.349Z,99312.09
2022-09-28T00:31:43.562Z,99332.75
2022-09-28T00:34:11.728Z,99331.88
2022-09-28T00:36:49.157Z,99331.00
2022-09-28T00:39:18.323Z,99301.03
2022-09-28T00:41:47.304Z,99273.06
2022-09-28T00:44:42.082Z,99225.50
2022-09-28T00:47:18.602Z,99135.53
2022-09-28T00:49:50.607Z,99039.47
2022-09-28T00:52:24.826Z,98916.44
2022-09-28T00:54:54.356Z,98887.22
2022-09-28T00:57:24.155Z,98832.38
2022-09-28T00:59:56.044Z,98780.19
2022-09-28T01:02:24.148Z,98742.41
2022-09-28T01:04:52.988Z,98684.25
2022-09-28T01:07:31.494Z,98625.25
2022-09-28T01:10:00.240Z,98599.53
2022-09-28T01:12:28.625Z,98553.94
2022-09-28T01:14:59.719Z,98506.09
2022-09-28T01:17:36.546Z,98513.88
2022-09-28T01:20:25.037Z,98555.03
2022-09-28T01:23:31.605Z,98562.69
2022-09-28T01:26:34.278Z,98568.63
2022-09-28T01:29:06.143Z,98539.72
2022-09-28T01:31:39.408Z,98554.06
2022-09-28T01:34:13.110Z,98563.38
2022-09-28T01:36:47.253Z,98584.75
2022-09-28T01:39:22.145Z,98622.09
2022-09-28T01:41:53.846Z,98609.47
2022-09-28T01:44:24.244Z,98593.78
2022-09-28T01:46:55.300Z,98572.06
2022-09-28T01:49:30.949Z,98514.06
2022-09-28T01:52:03.662Z,98473.44
2022-09-28T01:54:38.529Z,98393.91
2022-09-28T01:57:13.581Z,98331.69
2022-09-28T01:59:49.487Z,98337.78
2022-09-28T02:02:21.730Z,98332.81
2022-09-28T02:04:56.141Z,98272.41
2022-09-28T02:07:29.481Z,98261.66
2022-09-28T02:10:02.195Z,98224.88
2022-09-28T02:12:39.731Z,98216.97
2022-09-28T02:15:25.349Z,98183.13
2022-09-28T02:17:53.667Z,98116.25
2022-09-28T02:20:23.108Z,98126.44
2022-09-28T02:22:52.824Z,98099.97
2022-09-28T02:25:29.004Z,98121.63
2022-09-28T02:28:01.993Z,98092.22
2022-09-28T02:30:31.465Z,98102.38
2022-09-28T02:33:07.894Z,98089.94
2022-09-28T02:35:36.784Z,98079.34
2022-09-28T02:38:04.818Z,98061.66
2022-09-28T02:40:35.273Z,98067.34
2022-09-28T02:43:12.899Z,98050.78
2022-09-28T02:46:02.128Z,98018.41
2022-09-28T02:49:05.190Z,98015.28
2022-09-28T02:51:53.933Z,98010.31
2022-09-28T02:54:38.138Z,97996.28
2022-09-28T02:57:21.255Z,97949.81
2022-09-28T02:59:58.669Z,97893.06
2022-09-28T03:02:31.461Z,97875.78
2022-09-28T03:05:17.013Z,97817.81
2022-09-28T03:07:53.835Z,97802.69
2022-09-28T03:10:30.256Z,97755.25
2022-09-28T03:12:59.049Z,97715.41
2022-09-28T03:15:30.592Z,97678.78
2022-09-28T03:17:59.552Z,97674.81
2022-09-28T03:20:28.514Z,97701.03
2022-09-28T03:23:20.147Z,97698.66
2022-09-28T03:25:47.555Z,97694.91
2022-09-28T03:28:15.823Z,97704.66
2022-09-28T03:30:47.602Z,97691.91
2022-09-28T03:33:23.269Z,97688.22
2022-09-28T03:35:56.554Z,97680.63
2022-09-28T03:38:25.478Z,97687.69
2022-09-28T03:40:59.348Z,97669.34
2022-09-28T03:43:31.573Z,97657.28
2022-09-28T03:46:03.848Z,97677.56
2022-09-28T03:48:38.525Z,97682.09
2022-09-28T03:51:09.809Z,97681.78
2022-09-28T03:53:42.161Z,97699.50
2022-09-28T03:56:13.674Z,97694.75
2022-09-28T03:58:43.285Z,97672.03
2022-09-28T04:01:17.847Z,97631.13
2022-09-28T04:03:47.897Z,97604.50
2022-09-28T04:06:16.168Z,97574.53
2022-09-28T04:08:48.524Z,97517.88
2022-09-28T04:11:16.883Z,97508.31
2022-09-28T04:13:50.291Z,97520.22
2022-09-28T04:16:21.020Z,97525.28
2022-09-28T04:19:04.361Z,97522.91
2022-09-28T04:21:59.183Z,97553.53
2022-09-28T04:24:27.003Z,97540.06
2022-09-28T04:27:15.991Z,97545.44
2022-09-28T04:29:44.215Z,97552.47
2022-09-28T04:32:25.534Z,97567.44
2022-09-28T04:34:57.220Z,97554.38
2022-09-28T04:37:34.828Z,97475.59
2022-09-28T04:40:03.854Z,97435.94
2022-09-28T04:42:32.990Z,97426.91
2022-09-28T04:45:02.215Z,97418.78
2022-09-28T04:47:32.114Z,97427.91
2022-09-28T04:50:25.373Z,97448.69
2022-09-28T04:53:16.920Z,97482.94
2022-09-28T04:55:45.351Z,97521.63
2022-09-28T04:58:13.477Z,97531.47
2022-09-28T05:00:41.655Z,97536.34
2022-09-28T05:03:43.178Z,97567.91
2022-09-28T05:06:34.198Z,97578.47
2022-09-28T05:09:10.262Z,97596.44
2022-09-28T05:11:38.273Z,97589.31
2022-09-28T05:14:12.121Z,97577.03
2022-09-28T05:16:41.715Z,97585.63
2022-09-28T05:19:30.282Z,97596.53
2022-09-28T05:22:04.731Z,97594.91
2022-09-28T05:24:38.584Z,97620.25
2022-09-28T05:27:06.803Z,97620.09
2022-09-28T05:29:35.279Z,97613.16
2022-09-28T05:32:41.947Z,97606.28
2022-09-28T05:35:21.790Z,97615.72
2022-09-28T05:37:50.387Z,97624.88
2022-09-28T05:40:19.007Z,97640.59
2022-09-28T05:42:46.996Z,97644.75
2022-09-28T05:45:15.383Z,97660.56
2022-09-28T05:47:46.984Z,97688.66
2022-09-28T05:50:19.216Z,97719.53
2022-09-28T05:52:50.283Z,97727.28
2022-09-28T05:55:18.499Z,97736.03
2022-09-28T05:57:46.541Z,97749.06
2022-09-28T06:00:15.573Z,97728.03
2022-09-28T06:03:00.022Z,97708.47
2022-09-28T06:05:29.586Z,97699.66
2022-09-28T06:07:59.964Z,97661.88
2022-09-28T06:10:29.474Z,97623.81
2022-09-28T06:13:00.770Z,97585.03
2022-09-28T06:15:37.983Z,97544.38
2022-09-28T06:18:18.968Z,97515.28
2022-09-28T06:21:26.415Z,97488.59
2022-09-28T06:32:09.388Z,97416.84
2022-09-28T06:38:53.537Z,97381.59
2022-09-28T06:41:33.851Z,97339.94
2022-09-28T06:50:38.575Z,97144.72
2022-09-28T06:54:02.897Z,97123.84
2022-09-28T07:19:16.947Z,96742.50
2022-09-28T07:29:58.820Z,96564.91
2022-09-28T07:32:48.672Z,96479.28
2022-09-28T07:35:55.235Z,96382.88
2022-09-28T07:38:27.917Z,96329.47
2022-09-28T07:41:12.076Z,96261.31
2022-09-28T07:43:51.847Z,96189.69
2022-09-28T07:46:21.358Z,96138.06
2022-09-28T07:48:56.780Z,96050.00
2022-09-28T07:51:35.779Z,95945.16
2022-09-28T07:54:22.651Z,95845.72
2022-09-28T07:57:14.809Z,95775.81
2022-09-28T07:59:58.299Z,95739.44
2022-09-28T08:02:42.517Z,95720.41
2022-09-28T08:05:12.470Z,95704.69
2022-09-28T08:07:44.123Z,95668.69
2022-09-28T08:15:03.258Z,95573.53
2022-09-28T08:43:25.976Z,95551.97
2022-09-28T09:10:51.268Z,95470.72
2022-09-28T09:13:43.205Z,95465.28
2022-09-28T09:16:22.654Z,95460.72
2022-09-28T09:19:17.367Z,95464.31
2022-09-28T09:22:18.230Z,95457.16
2022-09-28T09:24:51.460Z,95468.75
2022-09-28T09:27:41.574Z,95462.00
2022-09-28T09:30:12.888Z,95467.84
2022-09-28T09:33:07.460Z,95467.41
2022-09-28T09:36:18.018Z,95440.78
2022-09-28T09:39:35.146Z,95428.06
2022-09-28T09:42:40.687Z,95469.22
2022-09-28T09:45:44.157Z,95498.69
2022-09-28T09:48:29.900Z,95517.41
2022-09-28T09:51:02.243Z,95526.53
2022-09-28T09:53:38.814Z,95554.56
2022-09-28T09:56:14.330Z,95553.06
2022-09-28T09:59:08.993Z,95553.09
2022-09-28T10:01:43.396Z,95549.97
2022-09-28T10:04:38.800Z,95541.06
2022-09-28T10:07:22.059Z,95523.59
2022-09-28T10:09:52.952Z,95534.16
2022-09-28T10:12:33.334Z,95516.66
2022-09-28T10:15:07.681Z,95516.16
2022-09-28T10:17:48.167Z,95512.06
2022-09-28T10:20:38.190Z,95500.66
2022-09-28T10:23:27.873Z,95525.97
2022-09-28T10:26:01.542Z,95557.72
2022-09-28T10:28:36.712Z,95550.88
2022-09-28T10:31:37.376Z,95560.09
2022-09-28T10:34:09.981Z,95550.53
2022-09-28T10:36:48.106Z,95533.97
2022-09-28T10:39:31.825Z,95532.72
2022-09-28T10:42:03.711Z,95550.81
2022-09-28T10:44:34.804Z,95554.75
2022-09-28T10:47:19.192Z,95554.66
2022-09-28T10:49:51.656Z,95548.22
2022-09-28T10:52:39.803Z,95558.91
2022-09-28T10:55:37.000Z,95542.06
2022-09-28T10:58:26.312Z,95553.63
2022-09-28T11:01:04.693Z,95556.75
2022-09-28T11:03:52.043Z,95549.69
2022-09-28T11:06:27.031Z,95542.06
2022-09-28T11:08:58.139Z,95515.94
2022-09-28T11:11:27.639Z,95508.16
2022-09-28T11:14:03.915Z,95503.19
2022-09-28T11:16:37.268Z,95477.75
2022-09-28T11:19:28.991Z,95439.31
2022-09-28T11:21:57.174Z,95477.31
2022-09-28T11:24:34.084Z,95488.00
2022-09-28T11:27:05.315Z,95463.81
2022-09-28T11:29:41.738Z,95484.78
2022-09-28T11:32:32.973Z,95504.88
2022-09-28T11:35:39.571Z,95556.06
2022-09-28T11:38:22.020Z,95592.16
2022-09-28T11:41:37.037Z,95584.59
2022-09-28T11:44:21.130Z,95642.16
2022-09-28T11:47:11.334Z,95660.97
2022-09-28T11:49:45.117Z,95708.94
2022-09-28T11:52:23.060Z,95722.84
2022-09-28T11:54:56.706Z,95736.25
2022-09-28T11:57:29.592Z,95727.41
2022-09-28T12:00:01.717Z,95737.59
2022-09-28T12:02:38.107Z,95733.19
2022-09-28T12:05:20.704Z,95736.53
2022-09-28T12:07:55.752Z,95724.53
2022-09-28T12:10:51.337Z,95681.13
2022-09-28T12:13:29.138Z,95675.91
2022-09-28T12:16:27.639Z,95734.06
2022-09-28T12:18:54.524Z,95721.69
2022-09-28T12:21:36.066Z,95709.84
2022-09-28T12:24:13.606Z,95727.09
2022-09-28T12:26:48.230Z,95739.66
2022-09-28T12:29:25.804Z,95728.84
2022-09-28T12:32:01.528Z,95778.22
2022-09-28T12:34:29.723Z,95784.91
2022-09-28T12:37:10.078Z,95790.75
2022-09-28T12:39:58.107Z,95792.94
2022-09-28T12:42:44.203Z,95772.59
2022-09-28T12:45:27.783Z,95761.88
2022-09-28T12:48:17.188Z,95758.50
2022-09-28T12:50:56.818Z,95745.16
2022-09-28T12:53:54.093Z,95741.16
2022-09-28T12:56:36.578Z,95722.78
2022-09-28T12:59:19.978Z,95723.63
2022-09-28T13:02:02.365Z,95715.97
2022-09-28T13:04:54.755Z,95681.00
2022-09-28T13:07:31.507Z,95696.69
2022-09-28T13:10:16.845Z,95685.53
2022-09-28T13:13:14.278Z,95668.41
2022-09-28T13:15:50.254Z,95643.50
2022-09-28T13:18:27.515Z,95633.88
2022-09-28T13:21:07.884Z,95671.25
2022-09-28T13:23:40.591Z,95696.28
2022-09-28T13:26:22.774Z,95692.38
2022-09-28T13:29:03.555Z,95691.06
2022-09-28T13:31:40.294Z,95667.22
2022-09-28T13:34:22.533Z,95632.53
2022-09-28T13:37:20.899Z,95616.66
2022-09-28T13:39:52.218Z,95593.44
2022-09-28T13:43:09.071Z,95557.97
2022-09-28T13:45:53.677Z,95567.66
2022-09-28T13:48:25.686Z,95554.06
2022-09-28T13:51:58.832Z,95485.97
2022-09-28T13:54:41.401Z,95422.50
2022-09-28T13:57:24.037Z,95448.13
2022-09-28T14:00:02.925Z,95439.91
2022-09-28T14:02:47.816Z,95449.38
2022-09-28T14:05:53.248Z,95456.56
2022-09-28T14:08:34.952Z,95505.44
2022-09-28T14:11:43.349Z,95549.63
2022-09-28T14:14:52.237Z,95567.91
2022-09-28T14:26:36.304Z,95670.34
2022-09-28T14:29:20.431Z,95739.63
2022-09-28T14:31:49.188Z,95797.94
2022-09-28T14:34:35.599Z,95868.78
2022-09-28T14:37:24.415Z,95934.31
2022-09-28T14:40:09.987Z,96050.94
2022-09-28T14:42:41.323Z,96173.72
2022-09-28T14:58:25.667Z,95788.00
2022-09-28T15:01:49.719Z,95725.81
2022-09-28T15:08:40.234Z,95654.63
2022-09-28T15:11:26.422Z,95659.22
2022-09-28T15:14:15.896Z,95661.31
2022-09-28T15:16:52.826Z,95667.59
2022-09-28T15:20:15.931Z,95675.06
2022-09-28T15:22:47.804Z,95700.91
2022-09-28T15:25:58.819Z,95718.28
2022-09-28T15:30:41.533Z,95726.84
2022-09-28T15:33:43.413Z,95760.63
2022-09-28T15:37:36.491Z,95795.84
2022-09-28T15:40:35.719Z,95811.75
2022-09-28T15:43:23.678Z,95837.88
2022-09-28T15:46:05.438Z,95861.31
2022-09-28T15:48:42.225Z,95902.75
2022-09-28T15:51:12.041Z,95933.06
2022-09-28T15:53:48.368Z,95958.72
2022-09-28T15:56:16.439Z,96011.97
2022-09-28T15:59:09.543Z,96050.31
2022-09-28T16:01:39.944Z,96112.88
2022-09-28T16:11:31.539Z,96192.06
2022-09-28T16:14:31.083Z,96174.66
2022-09-28T16:17:18.212Z,96122.03
2022-09-28T16:19:49.651Z,96035.75
2022-09-28T16:22:29.299Z,95952.91
2022-09-28T16:25:07.910Z,95926.41
2022-09-28T16:31:51.491Z,95890.19
2022-09-28T16:34:21.451Z,95891.22
2022-09-28T16:36:55.276Z,95896.81
2022-09-28T16:40:04.393Z,95900.97
2022-09-28T16:42:33.321Z,95931.00
2022-09-28T17:04:58.529Z,96139.28
2022-09-28T17:07:27.990Z,96191.59
2022-09-28T17:09:56.138Z,96223.25
2022-09-28T17:12:28.959Z,96251.84
2022-09-28T17:14:57.753Z,96291.84
2022-09-28T17:17:29.915Z,96364.94
2022-09-28T17:19:58.307Z,96442.72
2022-09-28T17:22:27.906Z,96518.44
2022-09-28T17:24:55.870Z,96606.69
2022-09-28T17:27:24.169Z,96695.91
2022-09-28T17:29:52.339Z,96804.56
2022-09-28T17:32:20.751Z,96889.66
2022-09-28T17:35:00.930Z,96971.31
2022-09-28T17:37:38.562Z,97042.88
2022-09-28T17:40:16.857Z,97098.88
2022-09-28T17:42:46.516Z,97181.97
2022-09-28T17:45:18.969Z,97249.25
2022-09-28T17:47:47.171Z,97321.94
2022-09-28T17:50:22.966Z,97384.50
2022-09-28T17:52:55.475Z,97453.25
2022-09-28T17:55:25.088Z,97504.38
2022-09-28T17:57:53.348Z,97570.28
2022-09-28T18:00:22.822Z,97636.38
2022-09-28T18:02:54.428Z,97698.94
2022-09-28T18:05:23.517Z,97768.63
2022-09-28T18:07:53.797Z,97812.72
2022-09-28T18:10:24.232Z,97850.75
2022-09-28T18:12:52.239Z,97907.63
2022-09-28T18:15:20.766Z,97970.41
2022-09-28T18:17:48.867Z,98033.00
2022-09-28T18:20:17.257Z,98076.81
2022-09-28T18:22:45.207Z,98142.44
2022-09-28T18:25:14.925Z,98183.50
2022-09-28T18:27:43.220Z,98227.59
2022-09-28T18:30:11.603Z,98272.03
2022-09-28T18:32:39.485Z,98312.25
2022-09-28T18:35:10.249Z,98346.84
2022-09-28T18:37:39.843Z,98393.13
2022-09-28T18:40:09.429Z,98428.63
2022-09-28T18:42:39.825Z,98470.28
2022-09-28T18:45:11.129Z,98517.56
2022-09-28T18:47:39.302Z,98559.47
2022-09-28T18:50:08.391Z,98570.66
2022-09-28T18:52:38.029Z,98585.22
2022-09-28T18:55:07.618Z,98609.28
2022-09-28T18:57:37.131Z,98628.56
2022-09-28T19:00:08.897Z,98658.56
2022-09-28T19:03:04.213Z,98679.47
2022-09-28T19:05:45.328Z,98719.44
2022-09-28T19:08:14.896Z,98730.41
2022-09-28T19:10:45.382Z,98732.66
2022-09-28T19:13:15.369Z,98742.78
2022-09-28T19:15:47.728Z,98747.34
2022-09-28T19:18:17.861Z,98771.03
2022-09-28T19:20:47.931Z,98786.44
2022-09-28T19:23:18.290Z,98809.41
2022-09-28T19:25:48.317Z,98802.34
2022-09-28T19:28:19.045Z,98810.88
2022-09-28T19:30:58.062Z,98830.28
2022-09-28T19:33:27.695Z,98837.63
2022-09-28T19:35:58.635Z,98833.13
2022-09-28T19:38:31.163Z,98837.31
2022-09-28T19:41:01.162Z,98831.19
2022-09-28T19:43:30.208Z,98844.41
2022-09-28T19:46:04.717Z,98843.28
2022-09-28T19:48:33.772Z,98861.13
2022-09-28T19:51:03.335Z,98836.22
2022-09-28T19:53:33.452Z,98835.13
2022-09-28T19:56:03.081Z,98833.06
2022-09-28T19:58:34.015Z,98830.75
2022-09-28T20:01:06.115Z,98804.63
2022-09-28T20:03:33.978Z,98790.47
2022-09-28T20:06:03.167Z,98793.50
2022-09-28T20:08:31.118Z,98776.06
2022-09-28T20:11:00.061Z,98782.59
2022-09-28T20:13:31.757Z,98786.88
2022-09-28T20:16:06.538Z,98756.81
2022-09-28T20:18:36.076Z,98726.47
2022-09-28T20:21:05.376Z,98733.88
2022-09-28T20:23:36.165Z,98738.81
2022-09-28T20:26:04.729Z,98773.56
2022-09-28T20:28:32.837Z,98788.50
2022-09-28T20:31:05.293Z,98803.91
2022-09-28T20:33:34.912Z,98802.94
2022-09-28T20:36:07.397Z,98809.75
2022-09-28T20:38:38.271Z,98815.63
2022-09-28T20:41:07.449Z,98822.00
2022-09-28T20:43:36.166Z,98833.72
2022-09-28T20:46:07.305Z,98811.25
2022-09-28T20:48:35.531Z,98849.41
2022-09-28T20:51:08.823Z,98864.00
2022-09-28T20:53:37.922Z,98882.22
2022-09-28T20:56:08.517Z,98918.03
2022-09-28T20:58:39.184Z,98923.66
2022-09-28T21:01:14.189Z,98955.16
2022-09-28T21:03:47.490Z,98979.38
2022-09-28T21:06:17.404Z,98984.97
2022-09-28T21:08:46.246Z,98999.53
2022-09-28T21:11:15.451Z,99001.88
2022-09-28T21:13:43.851Z,98986.09
2022-09-28T21:16:14.478Z,98991.34
2022-09-28T21:18:42.594Z,98986.34
2022-09-28T21:21:13.823Z,98988.91
2022-09-28T21:23:42.676Z,99007.25
2022-09-28T21:26:12.732Z,98999.53
2022-09-28T21:28:41.357Z,98991.97
2022-09-28T21:31:11.366Z,99001.50
2022-09-28T21:33:40.688Z,99013.94
2022-09-28T21:36:09.932Z,99028.97
2022-09-28T21:38:37.984Z,99048.16
2022-09-28T21:41:06.213Z,99046.28
2022-09-28T21:43:34.274Z,99048.44
2022-09-28T21:46:02.611Z,99040.09
2022-09-28T21:48:31.142Z,99037.53
2022-09-28T21:51:02.328Z,99011.75
2022-09-28T21:53:32.332Z,98991.69
2022-09-28T21:56:01.233Z,98967.63
2022-09-28T21:58:30.882Z,98928.56
2022-09-28T22:01:03.263Z,98892.63
2022-09-28T22:03:32.351Z,98878.81
2022-09-28T22:06:01.798Z,98841.97
2022-09-28T22:08:29.892Z,98808.41
2022-09-28T22:11:01.882Z,98802.28
2022-09-28T22:13:30.360Z,98772.00
2022-09-28T22:15:58.852Z,98757.34
2022-09-28T22:18:27.305Z,98702.66
2022-09-28T22:21:04.045Z,98696.53
2022-09-28T22:23:32.082Z,98701.63
2022-09-28T22:26:01.571Z,98691.41
2022-09-28T22:28:29.835Z,98657.97
2022-09-28T22:30:58.642Z,98618.75
2022-09-28T22:33:26.935Z,98558.72
2022-09-28T22:35:55.518Z,98523.09
2022-09-28T22:38:25.737Z,98486.50
2022-09-28T22:40:57.000Z,98472.75
2022-09-28T22:43:26.315Z,98411.06
2022-09-28T22:46:02.493Z,98347.59
2022-09-28T22:48:30.684Z,98327.28
2022-09-28T22:51:01.981Z,98279.06
2022-09-28T22:53:31.490Z,98257.31
2022-09-28T22:56:01.444Z,98209.41
2022-09-28T22:58:29.366Z,98137.50
2022-09-28T23:00:59.155Z,98093.28
2022-09-28T23:03:27.006Z,98047.66
2022-09-28T23:05:55.865Z,98015.16
2022-09-28T23:08:24.925Z,97987.91
2022-09-28T23:10:54.202Z,97987.75
2022-09-28T23:13:22.065Z,97974.19
2022-09-28T23:15:57.157Z,97926.47
2022-09-28T23:18:26.078Z,97912.47
2022-09-28T23:20:54.946Z,97898.22
2022-09-28T23:23:23.446Z,97885.78
2022-09-28T23:25:51.841Z,97867.16
2022-09-28T23:28:22.264Z,97829.69
2022-09-28T23:30:51.234Z,97779.47
2022-09-28T23:33:20.672Z,97722.81
2022-09-28T23:35:49.804Z,97673.72
2022-09-28T23:38:19.419Z,97656.03
2022-09-28T23:40:48.876Z,97614.00
2022-09-28T23:43:22.385Z,97581.81
2022-09-28T23:45:50.557Z,97548.78
2022-09-28T23:48:19.484Z,97512.41
2022-09-28T23:50:49.078Z,97470.22
2022-09-28T23:53:17.238Z,97433.00
2022-09-28T23:55:54.504Z,97396.63
2022-09-28T23:58:24.125Z,97385.44
